sensor_id;sensor_type;location;lat;lon;timestamp;temperature;humidity
21602;DHT22;10963;50.934;4.668;2022-07-05T00:01:47;16.90;99.90
21602;DHT22;10963;50.934;4.668;2022-07-05T00:04:12;16.80;99.90
21602;DHT22;10963;50.934;4.668;2022-07-05T00:06:40;16.90;99.90
21602;DHT22;10963;50.934;4.668;2022-07-05T00:09:26;16.90;99.90
21602;DHT22;10963;50.934;4.668;2022-07-05T00:11:54;16.70;99.90
21602;DHT22;10963;50.934;4.668;2022-07-05T00:14:20;16.80;99.90
21602;DHT22;10963;50.934;4.668;2022-07-05T00:16:49;16.90;99.90
21602;DHT22;10963;50.934;4.668;2022-07-05T00:19:15;16.70;99.90
21602;DHT22;10963;50.934;4.668;2022-07-05T00:21:41;16.70;99.90
21602;DHT22;10963;50.934;4.668;2022-07-05T00:24:07;16.60;99.90
21602;DHT22;10963;50.934;4.668;2022-07-05T00:26:32;16.70;99.90
21602;DHT22;10963;50.934;4.668;2022-07-05T00:28:58;16.70;99.90
21602;DHT22;10963;50.934;4.668;2022-07-05T00:31:26;16.50;99.90
21602;DHT22;10963;50.934;4.668;2022-07-05T00:33:55;16.40;99.90
21602;DHT22;10963;50.934;4.668;2022-07-05T00:36:22;16.40;99.90
21602;DHT22;10963;50.934;4.668;2022-07-05T00:38:50;16.40;99.90
21602;DHT22;10963;50.934;4.668;2022-07-05T00:41:16;16.40;99.90
21602;DHT22;10963;50.934;4.668;2022-07-05T00:43:55;16.30;99.90
21602;DHT22;10963;50.934;4.668;2022-07-05T00:46:21;16.30;99.90
21602;DHT22;10963;50.934;4.668;2022-07-05T00:48:48;16.20;99.90
21602;DHT22;10963;50.934;4.668;2022-07-05T00:51:16;16.10;99.90
21602;DHT22;10963;50.934;4.668;2022-07-05T00:53:43;16.10;99.90
21602;DHT22;10963;50.934;4.668;2022-07-05T00:56:10;16.20;99.90
21602;DHT22;10963;50.934;4.668;2022-07-05T00:58:36;16.20;99.90
21602;DHT22;10963;50.934;4.668;2022-07-05T01:01:06;16.20;99.90
21602;DHT22;10963;50.934;4.668;2022-07-05T01:03:35;16.10;99.90
21602;DHT22;10963;50.934;4.668;2022-07-05T01:06:02;16.00;99.90
21602;DHT22;10963;50.934;4.668;2022-07-05T01:08:30;15.90;99.90
21602;DHT22;10963;50.934;4.668;2022-07-05T01:11:00;15.90;99.90
21602;DHT22;10963;50.934;4.668;2022-07-05T01:13:26;16.00;99.90
21602;DHT22;10963;50.934;4.668;2022-07-05T01:15:55;16.00;99.90
21602;DHT22;10963;50.934;4.668;2022-07-05T01:18:21;16.00;99.90
21602;DHT22;10963;50.934;4.668;2022-07-05T01:20:50;15.90;99.90
21602;DHT22;10963;50.934;4.668;2022-07-05T01:23:19;15.80;99.90
21602;DHT22;10963;50.934;4.668;2022-07-05T01:25:50;15.80;99.90
21602;DHT22;10963;50.934;4.668;2022-07-05T01:28:18;15.90;99.90
21602;DHT22;10963;50.934;4.668;2022-07-05T01:30:44;15.90;99.90
21602;DHT22;10963;50.934;4.668;2022-07-05T01:33:10;15.80;99.90
21602;DHT22;10963;50.934;4.668;2022-07-05T01:35:36;15.70;99.90
21602;DHT22;10963;50.934;4.668;2022-07-05T01:38:03;15.70;99.90
21602;DHT22;10963;50.934;4.668;2022-07-05T01:40:31;15.70;99.90
21602;DHT22;10963;50.934;4.668;2022-07-05T01:42:57;15.70;99.90
21602;DHT22;10963;50.934;4.668;2022-07-05T01:45:27;15.60;99.90
21602;DHT22;10963;50.934;4.668;2022-07-05T01:48:12;15.50;99.90
21602;DHT22;10963;50.934;4.668;2022-07-05T01:50:57;15.60;99.90
21602;DHT22;10963;50.934;4.668;2022-07-05T01:53:28;15.50;99.90
21602;DHT22;10963;50.934;4.668;2022-07-05T01:55:57;15.40;99.90
21602;DHT22;10963;50.934;4.668;2022-07-05T01:58:24;15.30;99.90
21602;DHT22;10963;50.934;4.668;2022-07-05T02:00:51;15.30;99.90
21602;DHT22;10963;50.934;4.668;2022-07-05T02:03:20;15.30;99.90
21602;DHT22;10963;50.934;4.668;2022-07-05T02:05:49;15.30;99.90
21602;DHT22;10963;50.934;4.668;2022-07-05T02:08:16;15.30;99.90
21602;DHT22;10963;50.934;4.668;2022-07-05T02:10:45;15.30;99.90
21602;DHT22;10963;50.934;4.668;2022-07-05T02:13:13;15.20;99.90
21602;DHT22;10963;50.934;4.668;2022-07-05T02:15:41;15.30;99.90
21602;DHT22;10963;50.934;4.668;2022-07-05T02:18:10;15.30;99.90
21602;DHT22;10963;50.934;4.668;2022-07-05T02:20:38;15.30;99.90
21602;DHT22;10963;50.934;4.668;2022-07-05T02:23:04;15.30;99.90
21602;DHT22;10963;50.934;4.668;2022-07-05T02:25:29;15.30;99.90
21602;DHT22;10963;50.934;4.668;2022-07-05T02:27:55;15.20;99.90
21602;DHT22;10963;50.934;4.668;2022-07-05T02:30:24;15.30;99.90
21602;DHT22;10963;50.934;4.668;2022-07-05T02:32:52;15.20;99.90
21602;DHT22;10963;50.934;4.668;2022-07-05T02:35:18;15.00;99.90
21602;DHT22;10963;50.934;4.668;2022-07-05T02:37:43;14.90;99.90
21602;DHT22;10963;50.934;4.668;2022-07-05T02:40:11;14.80;99.90
21602;DHT22;10963;50.934;4.668;2022-07-05T02:42:38;14.80;99.90
21602;DHT22;10963;50.934;4.668;2022-07-05T02:45:09;14.90;99.90
21602;DHT22;10963;50.934;4.668;2022-07-05T02:47:38;15.00;99.90
21602;DHT22;10963;50.934;4.668;2022-07-05T02:50:08;15.00;99.90
21602;DHT22;10963;50.934;4.668;2022-07-05T02:52:37;15.00;99.90
21602;DHT22;10963;50.934;4.668;2022-07-05T02:55:04;14.90;99.90
21602;DHT22;10963;50.934;4.668;2022-07-05T02:57:34;14.80;99.90
21602;DHT22;10963;50.934;4.668;2022-07-05T03:00:02;14.80;99.90
21602;DHT22;10963;50.934;4.668;2022-07-05T03:02:31;14.80;99.90
21602;DHT22;10963;50.934;4.668;2022-07-05T03:05:00;14.80;99.90
21602;DHT22;10963;50.934;4.668;2022-07-05T03:07:28;14.90;99.90
21602;DHT22;10963;50.934;4.668;2022-07-05T03:09:54;14.90;99.90
21602;DHT22;10963;50.934;4.668;2022-07-05T03:12:22;14.80;99.90
21602;DHT22;10963;50.934;4.668;2022-07-05T03:14:50;14.80;99.90
21602;DHT22;10963;50.934;4.668;2022-07-05T03:17:16;14.80;99.90
21602;DHT22;10963;50.934;4.668;2022-07-05T03:19:42;14.90;99.90
21602;DHT22;10963;50.934;4.668;2022-07-05T03:22:08;14.90;99.90
21602;DHT22;10963;50.934;4.668;2022-07-05T03:24:34;14.80;99.90
21602;DHT22;10963;50.934;4.668;2022-07-05T03:27:00;14.70;99.90
21602;DHT22;10963;50.934;4.668;2022-07-05T03:29:28;14.70;99.90
21602;DHT22;10963;50.934;4.668;2022-07-05T03:31:53;14.60;99.90
21602;DHT22;10963;50.934;4.668;2022-07-05T03:34:19;14.60;99.90
21602;DHT22;10963;50.934;4.668;2022-07-05T03:36:45;14.70;99.90
21602;DHT22;10963;50.934;4.668;2022-07-05T03:39:15;14.70;99.90
21602;DHT22;10963;50.934;4.668;2022-07-05T03:41:41;14.60;99.90
21602;DHT22;10963;50.934;4.668;2022-07-05T03:44:07;14.50;99.90
21602;DHT22;10963;50.934;4.668;2022-07-05T03:46:33;14.60;99.90
21602;DHT22;10963;50.934;4.668;2022-07-05T03:48:59;14.60;99.90
21602;DHT22;10963;50.934;4.668;2022-07-05T03:51:27;14.60;99.90
21602;DHT22;10963;50.934;4.668;2022-07-05T03:53:53;14.60;99.90
21602;DHT22;10963;50.934;4.668;2022-07-05T03:56:20;14.60;99.90
21602;DHT22;10963;50.934;4.668;2022-07-05T03:58:50;14.70;99.90
21602;DHT22;10963;50.934;4.668;2022-07-05T04:01:16;14.60;99.90
21602;DHT22;10963;50.934;4.668;2022-07-05T04:03:41;14.70;99.90
21602;DHT22;10963;50.934;4.668;2022-07-05T04:06:10;14.70;99.90
21602;DHT22;10963;50.934;4.668;2022-07-05T04:08:36;14.60;99.90
21602;DHT22;10963;50.934;4.668;2022-07-05T04:11:05;14.70;99.90
21602;DHT22;10963;50.934;4.668;2022-07-05T04:13:33;14.60;99.90
21602;DHT22;10963;50.934;4.668;2022-07-05T04:16:02;14.70;99.90
21602;DHT22;10963;50.934;4.668;2022-07-05T04:18:29;14.70;99.90
21602;DHT22;10963;50.934;4.668;2022-07-05T04:20:55;14.70;99.90
21602;DHT22;10963;50.934;4.668;2022-07-05T04:23:21;14.70;99.90
21602;DHT22;10963;50.934;4.668;2022-07-05T04:25:48;14.80;99.90
21602;DHT22;10963;50.934;4.668;2022-07-05T04:28:14;14.90;99.90
21602;DHT22;10963;50.934;4.668;2022-07-05T04:30:42;14.80;99.90
21602;DHT22;10963;50.934;4.668;2022-07-05T04:33:13;14.90;99.90
21602;DHT22;10963;50.934;4.668;2022-07-05T04:35:43;15.10;99.90
21602;DHT22;10963;50.934;4.668;2022-07-05T04:38:11;15.30;99.90
21602;DHT22;10963;50.934;4.668;2022-07-05T04:40:37;15.40;99.90
21602;DHT22;10963;50.934;4.668;2022-07-05T04:43:08;15.60;99.90
21602;DHT22;10963;50.934;4.668;2022-07-05T04:45:35;15.40;99.90
21602;DHT22;10963;50.934;4.668;2022-07-05T04:48:06;15.40;99.90
21602;DHT22;10963;50.934;4.668;2022-07-05T04:50:32;15.70;99.90
21602;DHT22;10963;50.934;4.668;2022-07-05T04:53:00;15.80;99.90
21602;DHT22;10963;50.934;4.668;2022-07-05T04:55:28;16.00;99.90
21602;DHT22;10963;50.934;4.668;2022-07-05T04:57:54;16.40;99.90
21602;DHT22;10963;50.934;4.668;2022-07-05T05:00:22;16.80;99.90
21602;DHT22;10963;50.934;4.668;2022-07-05T05:02:50;17.30;99.90
21602;DHT22;10963;50.934;4.668;2022-07-05T05:05:17;17.70;99.90
21602;DHT22;10963;50.934;4.668;2022-07-05T05:07:45;18.00;99.90
21602;DHT22;10963;50.934;4.668;2022-07-05T05:10:11;18.30;99.90
21602;DHT22;10963;50.934;4.668;2022-07-05T05:12:39;18.50;99.90
21602;DHT22;10963;50.934;4.668;2022-07-05T05:15:08;19.40;99.90
21602;DHT22;10963;50.934;4.668;2022-07-05T05:20:07;21.70;99.90
21602;DHT22;10963;50.934;4.668;2022-07-05T05:22:37;22.10;99.90
21602;DHT22;10963;50.934;4.668;2022-07-05T05:25:03;21.90;99.90
21602;DHT22;10963;50.934;4.668;2022-07-05T05:27:29;21.70;99.90
21602;DHT22;10963;50.934;4.668;2022-07-05T05:29:55;21.00;99.90
21602;DHT22;10963;50.934;4.668;2022-07-05T05:32:20;20.90;99.90
21602;DHT22;10963;50.934;4.668;2022-07-05T05:34:46;20.70;99.90
21602;DHT22;10963;50.934;4.668;2022-07-05T05:37:12;20.60;99.90
21602;DHT22;10963;50.934;4.668;2022-07-05T05:39:40;21.00;99.90
21602;DHT22;10963;50.934;4.668;2022-07-05T05:42:06;21.90;99.90
21602;DHT22;10963;50.934;4.668;2022-07-05T05:44:34;23.10;99.90
21602;DHT22;10963;50.934;4.668;2022-07-05T05:47:00;24.30;99.90
21602;DHT22;10963;50.934;4.668;2022-07-05T05:49:28;25.30;99.90
21602;DHT22;10963;50.934;4.668;2022-07-05T05:51:57;26.30;99.90
21602;DHT22;10963;50.934;4.668;2022-07-05T05:54:23;27.10;98.80
21602;DHT22;10963;50.934;4.668;2022-07-05T05:56:48;27.70;96.70
21602;DHT22;10963;50.934;4.668;2022-07-05T05:59:19;28.40;95.20
21602;DHT22;10963;50.934;4.668;2022-07-05T06:01:47;28.80;94.00
21602;DHT22;10963;50.934;4.668;2022-07-05T06:04:15;29.40;92.70
21602;DHT22;10963;50.934;4.668;2022-07-05T06:06:44;29.50;91.80
21602;DHT22;10963;50.934;4.668;2022-07-05T06:09:12;29.40;91.70
21602;DHT22;10963;50.934;4.668;2022-07-05T06:11:40;29.40;91.30
21602;DHT22;10963;50.934;4.668;2022-07-05T06:14:08;29.60;90.20
21602;DHT22;10963;50.934;4.668;2022-07-05T06:16:39;29.90;89.10
21602;DHT22;10963;50.934;4.668;2022-07-05T06:19:07;30.10;88.30
21602;DHT22;10963;50.934;4.668;2022-07-05T06:21:32;30.40;87.30
21602;DHT22;10963;50.934;4.668;2022-07-05T06:23:58;30.40;85.40
21602;DHT22;10963;50.934;4.668;2022-07-05T06:26:26;30.10;85.90
21602;DHT22;10963;50.934;4.668;2022-07-05T06:28:54;30.20;85.10
21602;DHT22;10963;50.934;4.668;2022-07-05T06:31:21;30.40;85.30
21602;DHT22;10963;50.934;4.668;2022-07-05T06:33:51;30.40;84.80
21602;DHT22;10963;50.934;4.668;2022-07-05T06:36:17;31.10;84.60
21602;DHT22;10963;50.934;4.668;2022-07-05T06:38:42;31.00;83.00
21602;DHT22;10963;50.934;4.668;2022-07-05T06:41:11;30.80;82.20
21602;DHT22;10963;50.934;4.668;2022-07-05T06:43:37;31.00;81.80
21602;DHT22;10963;50.934;4.668;2022-07-05T06:46:02;30.90;81.30
21602;DHT22;10963;50.934;4.668;2022-07-05T06:48:32;30.60;81.30
21602;DHT22;10963;50.934;4.668;2022-07-05T06:51:02;30.30;81.70
21602;DHT22;10963;50.934;4.668;2022-07-05T06:53:34;29.90;84.30
21602;DHT22;10963;50.934;4.668;2022-07-05T06:56:02;30.10;85.00
21602;DHT22;10963;50.934;4.668;2022-07-05T06:58:28;30.00;82.60
21602;DHT22;10963;50.934;4.668;2022-07-05T07:00:54;30.00;82.60
21602;DHT22;10963;50.934;4.668;2022-07-05T07:03:20;29.50;83.40
21602;DHT22;10963;50.934;4.668;2022-07-05T07:05:48;29.70;83.00
21602;DHT22;10963;50.934;4.668;2022-07-05T07:08:16;29.70;82.40
21602;DHT22;10963;50.934;4.668;2022-07-05T07:11:01;29.90;82.60
21602;DHT22;10963;50.934;4.668;2022-07-05T07:13:26;29.90;81.60
21602;DHT22;10963;50.934;4.668;2022-07-05T07:15:52;30.20;82.30
21602;DHT22;10963;50.934;4.668;2022-07-05T07:18:20;30.40;81.70
21602;DHT22;10963;50.934;4.668;2022-07-05T07:20:48;30.00;81.70
21602;DHT22;10963;50.934;4.668;2022-07-05T07:23:15;30.50;80.60
21602;DHT22;10963;50.934;4.668;2022-07-05T07:25:44;30.20;78.40
21602;DHT22;10963;50.934;4.668;2022-07-05T07:28:12;30.70;81.30
21602;DHT22;10963;50.934;4.668;2022-07-05T07:30:38;31.20;79.60
21602;DHT22;10963;50.934;4.668;2022-07-05T07:33:06;30.70;80.00
21602;DHT22;10963;50.934;4.668;2022-07-05T07:35:32;30.60;80.60
21602;DHT22;10963;50.934;4.668;2022-07-05T07:37:58;30.40;80.80
21602;DHT22;10963;50.934;4.668;2022-07-05T07:40:23;29.90;81.40
21602;DHT22;10963;50.934;4.668;2022-07-05T07:42:51;30.10;81.20
21602;DHT22;10963;50.934;4.668;2022-07-05T07:45:19;29.80;80.50
21602;DHT22;10963;50.934;4.668;2022-07-05T07:47:46;29.50;82.60
21602;DHT22;10963;50.934;4.668;2022-07-05T07:50:12;30.10;80.80
21602;DHT22;10963;50.934;4.668;2022-07-05T07:52:37;29.80;79.80
21602;DHT22;10963;50.934;4.668;2022-07-05T07:55:08;29.10;81.30
21602;DHT22;10963;50.934;4.668;2022-07-05T07:57:37;29.10;82.80
21602;DHT22;10963;50.934;4.668;2022-07-05T08:00:05;30.00;80.20
21602;DHT22;10963;50.934;4.668;2022-07-05T08:02:31;30.50;79.20
21602;DHT22;10963;50.934;4.668;2022-07-05T08:04:57;31.00;77.70
21602;DHT22;10963;50.934;4.668;2022-07-05T08:07:24;31.30;77.60
21602;DHT22;10963;50.934;4.668;2022-07-05T08:09:50;31.60;76.30
21602;DHT22;10963;50.934;4.668;2022-07-05T08:12:20;32.80;74.70
21602;DHT22;10963;50.934;4.668;2022-07-05T08:14:46;32.30;73.10
21602;DHT22;10963;50.934;4.668;2022-07-05T08:17:14;32.30;72.30
21602;DHT22;10963;50.934;4.668;2022-07-05T08:19:40;31.80;73.20
21602;DHT22;10963;50.934;4.668;2022-07-05T08:22:26;31.80;73.10
21602;DHT22;10963;50.934;4.668;2022-07-05T08:24:52;31.40;74.00
21602;DHT22;10963;50.934;4.668;2022-07-05T08:27:20;30.30;75.00
21602;DHT22;10963;50.934;4.668;2022-07-05T08:29:46;30.10;75.30
21602;DHT22;10963;50.934;4.668;2022-07-05T08:32:14;29.30;77.70
21602;DHT22;10963;50.934;4.668;2022-07-05T08:34:44;29.40;77.00
21602;DHT22;10963;50.934;4.668;2022-07-05T08:37:12;28.80;78.60
21602;DHT22;10963;50.934;4.668;2022-07-05T08:39:40;29.10;78.00
21602;DHT22;10963;50.934;4.668;2022-07-05T08:42:08;29.90;78.50
21602;DHT22;10963;50.934;4.668;2022-07-05T08:44:38;30.30;74.60
21602;DHT22;10963;50.934;4.668;2022-07-05T08:47:12;30.20;75.70
21602;DHT22;10963;50.934;4.668;2022-07-05T08:49:42;30.70;75.10
21602;DHT22;10963;50.934;4.668;2022-07-05T08:52:14;31.10;74.30
21602;DHT22;10963;50.934;4.668;2022-07-05T08:54:43;31.40;73.00
21602;DHT22;10963;50.934;4.668;2022-07-05T08:57:11;31.00;73.40
21602;DHT22;10963;50.934;4.668;2022-07-05T08:59:37;31.10;74.50
21602;DHT22;10963;50.934;4.668;2022-07-05T09:02:10;31.10;69.60
21602;DHT22;10963;50.934;4.668;2022-07-05T09:04:44;31.10;71.60
21602;DHT22;10963;50.934;4.668;2022-07-05T09:07:14;31.30;71.80
21602;DHT22;10963;50.934;4.668;2022-07-05T09:09:42;31.80;71.40
21602;DHT22;10963;50.934;4.668;2022-07-05T09:12:14;32.30;70.00
21602;DHT22;10963;50.934;4.668;2022-07-05T09:14:42;32.20;68.30
21602;DHT22;10963;50.934;4.668;2022-07-05T09:17:10;31.70;69.40
21602;DHT22;10963;50.934;4.668;2022-07-05T09:19:39;30.80;71.10
21602;DHT22;10963;50.934;4.668;2022-07-05T09:22:05;31.20;70.90
21602;DHT22;10963;50.934;4.668;2022-07-05T09:24:34;30.80;70.80
21602;DHT22;10963;50.934;4.668;2022-07-05T09:27:07;30.40;73.00
21602;DHT22;10963;50.934;4.668;2022-07-05T09:29:35;29.10;73.90
21602;DHT22;10963;50.934;4.668;2022-07-05T09:32:01;28.50;75.70
21602;DHT22;10963;50.934;4.668;2022-07-05T09:34:31;28.40;76.10
21602;DHT22;10963;50.934;4.668;2022-07-05T09:37:02;28.40;76.90
21602;DHT22;10963;50.934;4.668;2022-07-05T09:47:18;28.90;76.20
21602;DHT22;10963;50.934;4.668;2022-07-05T09:50:07;29.10;76.20
21602;DHT22;10963;50.934;4.668;2022-07-05T09:52:41;29.00;76.60
21602;DHT22;10963;50.934;4.668;2022-07-05T09:55:20;28.90;76.20
21602;DHT22;10963;50.934;4.668;2022-07-05T09:57:47;28.80;75.40
21602;DHT22;10963;50.934;4.668;2022-07-05T10:00:20;29.50;73.90
21602;DHT22;10963;50.934;4.668;2022-07-05T10:02:53;29.40;74.90
21602;DHT22;10963;50.934;4.668;2022-07-05T10:05:22;29.10;77.20
21602;DHT22;10963;50.934;4.668;2022-07-05T10:07:50;29.40;77.50
21602;DHT22;10963;50.934;4.668;2022-07-05T10:10:23;30.40;73.20
21602;DHT22;10963;50.934;4.668;2022-07-05T10:12:51;30.40;70.50
21602;DHT22;10963;50.934;4.668;2022-07-05T10:15:25;31.90;72.80
21602;DHT22;10963;50.934;4.668;2022-07-05T10:18:07;32.70;68.10
21602;DHT22;10963;50.934;4.668;2022-07-05T10:23:26;34.00;65.10
21602;DHT22;10963;50.934;4.668;2022-07-05T10:25:52;32.60;67.20
21602;DHT22;10963;50.934;4.668;2022-07-05T10:28:23;32.10;68.80
21602;DHT22;10963;50.934;4.668;2022-07-05T10:30:50;33.10;68.80
21602;DHT22;10963;50.934;4.668;2022-07-05T10:33:20;33.60;67.10
21602;DHT22;10963;50.934;4.668;2022-07-05T10:35:53;33.00;62.80
21602;DHT22;10963;50.934;4.668;2022-07-05T10:38:19;33.60;62.70
21602;DHT22;10963;50.934;4.668;2022-07-05T10:40:52;33.60;65.10
21602;DHT22;10963;50.934;4.668;2022-07-05T10:43:22;33.30;63.90
21602;DHT22;10963;50.934;4.668;2022-07-05T10:45:50;32.40;64.10
21602;DHT22;10963;50.934;4.668;2022-07-05T10:48:21;32.20;64.70
21602;DHT22;10963;50.934;4.668;2022-07-05T10:51:36;31.80;67.10
21602;DHT22;10963;50.934;4.668;2022-07-05T10:56:12;31.40;63.00
21602;DHT22;10963;50.934;4.668;2022-07-05T10:58:45;30.40;64.50
21602;DHT22;10963;50.934;4.668;2022-07-05T11:06:28;30.40;65.90
21602;DHT22;10963;50.934;4.668;2022-07-05T11:11:39;30.00;67.10
21602;DHT22;10963;50.934;4.668;2022-07-05T11:20:00;30.80;67.60
21602;DHT22;10963;50.934;4.668;2022-07-05T11:22:27;30.70;65.80
21602;DHT22;10963;50.934;4.668;2022-07-05T11:24:53;30.30;67.50
21602;DHT22;10963;50.934;4.668;2022-07-05T11:27:25;30.30;69.80
21602;DHT22;10963;50.934;4.668;2022-07-05T11:29:55;30.30;70.00
21602;DHT22;10963;50.934;4.668;2022-07-05T11:35:11;29.70;67.00
21602;DHT22;10963;50.934;4.668;2022-07-05T11:38:04;29.50;69.10
21602;DHT22;10963;50.934;4.668;2022-07-05T11:40:34;29.10;71.50
21602;DHT22;10963;50.934;4.668;2022-07-05T11:43:03;28.70;73.20
21602;DHT22;10963;50.934;4.668;2022-07-05T11:45:32;28.70;76.20
21602;DHT22;10963;50.934;4.668;2022-07-05T11:47:58;29.10;74.50
21602;DHT22;10963;50.934;4.668;2022-07-05T11:50:34;29.30;69.60
21602;DHT22;10963;50.934;4.668;2022-07-05T11:53:07;29.00;68.30
21602;DHT22;10963;50.934;4.668;2022-07-05T11:55:36;28.90;69.60
21602;DHT22;10963;50.934;4.668;2022-07-05T11:58:08;28.70;70.20
21602;DHT22;10963;50.934;4.668;2022-07-05T12:00:37;28.50;68.30
21602;DHT22;10963;50.934;4.668;2022-07-05T12:03:15;28.40;69.50
21602;DHT22;10963;50.934;4.668;2022-07-05T12:05:44;28.40;71.30
21602;DHT22;10963;50.934;4.668;2022-07-05T12:08:19;28.20;71.60
21602;DHT22;10963;50.934;4.668;2022-07-05T12:10:50;28.10;72.00
21602;DHT22;10963;50.934;4.668;2022-07-05T12:13:48;28.00;72.80
21602;DHT22;10963;50.934;4.668;2022-07-05T12:16:14;27.80;74.30
21602;DHT22;10963;50.934;4.668;2022-07-05T12:18:51;27.60;77.80
21602;DHT22;10963;50.934;4.668;2022-07-05T12:21:18;27.30;76.00
21602;DHT22;10963;50.934;4.668;2022-07-05T12:23:49;27.00;78.70
21602;DHT22;10963;50.934;4.668;2022-07-05T12:26:16;27.00;79.20
21602;DHT22;10963;50.934;4.668;2022-07-05T12:28:43;27.10;77.10
21602;DHT22;10963;50.934;4.668;2022-07-05T12:31:30;27.00;77.30
21602;DHT22;10963;50.934;4.668;2022-07-05T12:34:16;27.10;76.60
21602;DHT22;10963;50.934;4.668;2022-07-05T12:36:45;27.10;78.60
21602;DHT22;10963;50.934;4.668;2022-07-05T12:39:11;27.40;80.70
21602;DHT22;10963;50.934;4.668;2022-07-05T12:41:46;27.50;75.60
21602;DHT22;10963;50.934;4.668;2022-07-05T12:44:20;27.30;76.80
21602;DHT22;10963;50.934;4.668;2022-07-05T12:46:47;27.20;78.30
21602;DHT22;10963;50.934;4.668;2022-07-05T12:49:19;27.00;78.60
21602;DHT22;10963;50.934;4.668;2022-07-05T12:51:45;26.30;80.20
21602;DHT22;10963;50.934;4.668;2022-07-05T12:54:21;25.90;81.80
21602;DHT22;10963;50.934;4.668;2022-07-05T12:57:07;25.80;82.00
21602;DHT22;10963;50.934;4.668;2022-07-05T12:59:58;26.00;82.10
21602;DHT22;10963;50.934;4.668;2022-07-05T13:02:41;26.00;82.50
21602;DHT22;10963;50.934;4.668;2022-07-05T13:05:09;26.30;82.50
21602;DHT22;10963;50.934;4.668;2022-07-05T13:07:44;26.50;81.60
21602;DHT22;10963;50.934;4.668;2022-07-05T13:12:44;26.90;79.20
21602;DHT22;10963;50.934;4.668;2022-07-05T13:15:10;27.30;81.70
21602;DHT22;10963;50.934;4.668;2022-07-05T13:17:36;27.40;78.50
21602;DHT22;10963;50.934;4.668;2022-07-05T13:20:02;27.60;79.70
21602;DHT22;10963;50.934;4.668;2022-07-05T13:22:32;27.30;76.90
21602;DHT22;10963;50.934;4.668;2022-07-05T13:25:00;26.70;81.40
21602;DHT22;10963;50.934;4.668;2022-07-05T13:27:25;26.50;80.90
21602;DHT22;10963;50.934;4.668;2022-07-05T13:29:51;26.00;83.70
21602;DHT22;10963;50.934;4.668;2022-07-05T13:32:17;26.20;83.70
21602;DHT22;10963;50.934;4.668;2022-07-05T13:34:45;25.80;81.90
21602;DHT22;10963;50.934;4.668;2022-07-05T13:37:11;25.70;83.40
21602;DHT22;10963;50.934;4.668;2022-07-05T13:39:39;25.40;82.30
21602;DHT22;10963;50.934;4.668;2022-07-05T13:42:05;25.40;84.20
21602;DHT22;10963;50.934;4.668;2022-07-05T13:44:34;25.70;81.00
21602;DHT22;10963;50.934;4.668;2022-07-05T13:47:00;25.90;81.80
21602;DHT22;10963;50.934;4.668;2022-07-05T13:49:26;25.90;82.80
21602;DHT22;10963;50.934;4.668;2022-07-05T13:51:51;25.80;80.80
21602;DHT22;10963;50.934;4.668;2022-07-05T13:54:17;25.40;80.80
21602;DHT22;10963;50.934;4.668;2022-07-05T13:56:45;25.20;84.00
21602;DHT22;10963;50.934;4.668;2022-07-05T13:59:11;25.30;82.40
21602;DHT22;10963;50.934;4.668;2022-07-05T14:01:37;25.40;82.20
21602;DHT22;10963;50.934;4.668;2022-07-05T14:04:05;25.00;83.30
21602;DHT22;10963;50.934;4.668;2022-07-05T14:06:32;24.70;83.60
21602;DHT22;10963;50.934;4.668;2022-07-05T14:09:05;24.80;83.30
21602;DHT22;10963;50.934;4.668;2022-07-05T14:11:33;24.90;84.10
21602;DHT22;10963;50.934;4.668;2022-07-05T14:14:01;24.80;83.60
21602;DHT22;10963;50.934;4.668;2022-07-05T14:16:26;24.90;82.80
21602;DHT22;10963;50.934;4.668;2022-07-05T14:18:52;24.70;83.50
21602;DHT22;10963;50.934;4.668;2022-07-05T14:21:24;24.60;82.50
21602;DHT22;10963;50.934;4.668;2022-07-05T14:23:52;24.70;82.10
21602;DHT22;10963;50.934;4.668;2022-07-05T14:26:17;24.80;80.40
21602;DHT22;10963;50.934;4.668;2022-07-05T14:28:43;24.70;82.60
21602;DHT22;10963;50.934;4.668;2022-07-05T14:31:10;24.70;83.90
21602;DHT22;10963;50.934;4.668;2022-07-05T14:33:36;24.50;83.30
21602;DHT22;10963;50.934;4.668;2022-07-05T14:36:05;24.40;83.60
21602;DHT22;10963;50.934;4.668;2022-07-05T14:38:31;24.40;83.90
21602;DHT22;10963;50.934;4.668;2022-07-05T14:40:57;24.40;84.40
21602;DHT22;10963;50.934;4.668;2022-07-05T14:43:22;24.40;84.40
21602;DHT22;10963;50.934;4.668;2022-07-05T14:45:48;24.30;84.70
21602;DHT22;10963;50.934;4.668;2022-07-05T14:48:14;24.10;84.30
21602;DHT22;10963;50.934;4.668;2022-07-05T14:50:40;24.10;83.60
21602;DHT22;10963;50.934;4.668;2022-07-05T14:53:05;23.90;86.20
21602;DHT22;10963;50.934;4.668;2022-07-05T14:55:34;23.80;84.60
21602;DHT22;10963;50.934;4.668;2022-07-05T14:58:01;23.60;86.50
21602;DHT22;10963;50.934;4.668;2022-07-05T15:00:26;23.40;87.30
21602;DHT22;10963;50.934;4.668;2022-07-05T15:02:54;23.20;87.50
21602;DHT22;10963;50.934;4.668;2022-07-05T15:05:21;23.30;87.80
21602;DHT22;10963;50.934;4.668;2022-07-05T15:07:46;23.40;87.00
21602;DHT22;10963;50.934;4.668;2022-07-05T15:10:12;23.50;87.60
21602;DHT22;10963;50.934;4.668;2022-07-05T15:12:40;23.40;88.30
21602;DHT22;10963;50.934;4.668;2022-07-05T15:15:07;23.60;85.10
21602;DHT22;10963;50.934;4.668;2022-07-05T15:17:32;23.60;84.50
21602;DHT22;10963;50.934;4.668;2022-07-05T15:19:59;23.50;85.50
21602;DHT22;10963;50.934;4.668;2022-07-05T15:22:28;23.20;87.80
21602;DHT22;10963;50.934;4.668;2022-07-05T15:24:54;23.20;88.10
21602;DHT22;10963;50.934;4.668;2022-07-05T15:27:20;23.30;88.60
21602;DHT22;10963;50.934;4.668;2022-07-05T15:29:48;23.50;87.00
21602;DHT22;10963;50.934;4.668;2022-07-05T15:32:16;23.50;87.70
21602;DHT22;10963;50.934;4.668;2022-07-05T15:34:49;23.50;85.00
21602;DHT22;10963;50.934;4.668;2022-07-05T15:37:17;23.30;86.60
21602;DHT22;10963;50.934;4.668;2022-07-05T15:39:46;23.30;86.30
21602;DHT22;10963;50.934;4.668;2022-07-05T15:42:12;23.10;84.20
21602;DHT22;10963;50.934;4.668;2022-07-05T15:44:41;23.00;86.50
21602;DHT22;10963;50.934;4.668;2022-07-05T15:47:11;23.20;84.90
21602;DHT22;10963;50.934;4.668;2022-07-05T15:49:38;23.10;85.10
21602;DHT22;10963;50.934;4.668;2022-07-05T15:52:04;23.20;84.80
21602;DHT22;10963;50.934;4.668;2022-07-05T15:54:30;23.30;85.00
21602;DHT22;10963;50.934;4.668;2022-07-05T15:56:56;23.40;84.90
21602;DHT22;10963;50.934;4.668;2022-07-05T15:59:24;23.40;83.30
21602;DHT22;10963;50.934;4.668;2022-07-05T16:01:50;23.40;84.40
21602;DHT22;10963;50.934;4.668;2022-07-05T16:04:17;23.40;84.20
21602;DHT22;10963;50.934;4.668;2022-07-05T16:06:45;23.40;82.90
21602;DHT22;10963;50.934;4.668;2022-07-05T16:09:11;23.50;83.10
21602;DHT22;10963;50.934;4.668;2022-07-05T16:11:37;23.40;82.60
21602;DHT22;10963;50.934;4.668;2022-07-05T16:14:03;23.40;82.50